Time;durP1;ratioP1;P1;durP2;ratioP2;P2;SDS_P1;SDS_P2;PMS_P1;PMS_P2;Temp;Humidity;BMP_temperature;BMP_pressure;BME280_temperature;BME280_humidity;BME280_pressure;Samples;Min_cycle;Max_cycle;Signal;HPM_P1;HPM_P2
2022/03/08 00:00:43;;;;;;;24.90;13.48;;;3.00;99.90;;;;;;4990589;28;20333;-71
2022/03/08 00:03:09;;;;;;;22.33;12.52;;;3.00;99.90;;;;;;4990702;28;20351;-71
2022/03/08 00:05:34;;;;;;;17.85;12.05;;;3.00;99.90;;;;;;4972823;28;20026;-71
2022/03/08 00:08:01;;;;;;;20.00;12.90;;;3.00;99.90;;;;;;4991690;28;20040;-72
2022/03/08 00:10:26;;;;;;;18.98;11.95;;;2.90;99.90;;;;;;4990420;28;20068;-71
2022/03/08 00:12:53;;;;;;;19.75;12.55;;;2.90;99.90;;;;;;4990314;28;20058;-71
2022/03/08 00:15:23;;;;;;;18.35;12.07;;;2.90;99.90;;;;;;4990689;28;20453;-71
2022/03/08 00:17:49;;;;;;;17.55;11.35;;;2.90;99.90;;;;;;4997410;28;20125;-71
2022/03/08 00:20:15;;;;;;;19.75;11.82;;;2.90;99.90;;;;;;5009003;28;20097;-72
2022/03/08 00:22:41;;;;;;;22.77;12.00;;;2.90;99.90;;;;;;5009997;28;20415;-71
2022/03/08 00:25:09;;;;;;;19.48;12.15;;;2.90;99.90;;;;;;5009855;28;20064;-71
2022/03/08 00:27:35;;;;;;;22.45;12.75;;;2.90;99.90;;;;;;5008399;28;20091;-71
2022/03/08 00:30:01;;;;;;;20.50;12.10;;;2.90;99.90;;;;;;4990169;28;20026;-71
2022/03/08 00:32:26;;;;;;;19.92;12.00;;;2.90;99.90;;;;;;4990068;28;20057;-71
2022/03/08 00:34:52;;;;;;;19.25;11.82;;;2.80;99.90;;;;;;4989941;28;20026;-71
2022/03/08 00:37:18;;;;;;;20.42;11.60;;;2.80;99.90;;;;;;4989968;28;20076;-71
2022/03/08 00:39:43;;;;;;;20.25;12.32;;;2.80;99.90;;;;;;5009573;28;20062;-71
2022/03/08 00:42:11;;;;;;;19.30;11.82;;;2.80;99.90;;;;;;5009560;28;20030;-71
2022/03/08 00:44:39;;;;;;;19.17;11.95;;;2.80;99.90;;;;;;5010057;28;20026;-71
2022/03/08 00:47:05;;;;;;;20.05;12.35;;;2.80;99.90;;;;;;5008749;28;20608;-71
2022/03/08 00:49:31;;;;;;;21.17;12.68;;;2.70;99.90;;;;;;5009399;28;20041;-71
2022/03/08 00:51:56;;;;;;;21.42;12.63;;;2.70;99.90;;;;;;5009493;28;20037;-71
2022/03/08 00:54:22;;;;;;;20.60;12.68;;;2.70;99.90;;;;;;5008893;28;20026;-71
2022/03/08 00:56:48;;;;;;;21.20;12.38;;;2.60;99.90;;;;;;5007937;28;20028;-71
2022/03/08 00:59:14;;;;;;;21.48;12.27;;;2.60;99.90;;;;;;4989763;28;20114;-71
2022/03/08 01:01:41;;;;;;;21.85;12.98;;;2.60;99.90;;;;;;4989726;28;20026;-71
2022/03/08 01:04:06;;;;;;;20.63;12.55;;;2.50;99.90;;;;;;4989721;28;20035;-71
2022/03/08 01:06:32;;;;;;;22.67;13.07;;;2.50;99.90;;;;;;4989949;28;20026;-71
2022/03/08 01:08:58;;;;;;;22.20;12.73;;;2.50;99.90;;;;;;4973399;28;20442;-71
2022/03/08 01:11:23;;;;;;;19.80;12.10;;;2.50;99.90;;;;;;4989754;28;20024;-71
2022/03/08 01:13:49;;;;;;;20.02;11.95;;;2.40;99.90;;;;;;4989704;28;20387;-71
2022/03/08 01:16:15;;;;;;;22.65;12.23;;;2.40;99.90;;;;;;4990029;28;20235;-71
2022/03/08 01:18:40;;;;;;;21.48;11.70;;;2.40;99.90;;;;;;5005368;28;20540;-72
2022/03/08 01:21:06;;;;;;;21.63;11.43;;;2.40;99.90;;;;;;4991624;28;20080;-71
2022/03/08 01:23:31;;;;;;;18.75;11.43;;;2.40;99.90;;;;;;5009225;28;20077;-71
2022/03/08 01:25:57;;;;;;;19.00;11.88;;;2.40;99.90;;;;;;5009320;28;20062;-71
2022/03/08 01:28:22;;;;;;;21.80;12.90;;;2.40;99.90;;;;;;4994543;28;20042;-71
2022/03/08 01:30:48;;;;;;;20.27;12.13;;;2.40;99.90;;;;;;4972104;28;20023;-71
2022/03/08 01:33:14;;;;;;;19.27;11.98;;;2.30;99.90;;;;;;4975447;28;20109;-71
2022/03/08 01:35:40;;;;;;;20.60;11.88;;;2.30;99.90;;;;;;4975797;28;20174;-71
2022/03/08 01:38:05;;;;;;;17.83;11.43;;;2.30;99.90;;;;;;4984762;28;20045;-71
2022/03/08 01:40:31;;;;;;;22.60;12.35;;;2.30;99.90;;;;;;5012764;28;20456;-71
2022/03/08 01:42:56;;;;;;;18.63;11.15;;;2.20;99.90;;;;;;5012687;28;20034;-71
2022/03/08 01:45:24;;;;;;;19.58;11.27;;;2.20;99.90;;;;;;4999784;28;20221;-71
2022/03/08 01:47:51;;;;;;;17.20;11.02;;;2.20;99.90;;;;;;4975923;28;20030;-71
2022/03/08 01:50:17;;;;;;;17.40;10.82;;;2.20;99.90;;;;;;4992990;28;20031;-71
2022/03/08 01:52:43;;;;;;;18.33;11.45;;;2.20;99.90;;;;;;4992871;28;20026;-70
2022/03/08 01:55:11;;;;;;;16.42;11.20;;;2.20;99.90;;;;;;4993007;28;20054;-71
2022/03/08 01:57:37;;;;;;;18.90;11.25;;;2.20;99.90;;;;;;4992958;28;20490;-71
2022/03/08 02:00:11;;;;;;;16.85;11.18;;;2.20;99.90;;;;;;4975527;28;20085;-71
2022/03/08 02:02:37;;;;;;;21.60;11.17;;;2.20;99.90;;;;;;4992956;28;20034;-71
2022/03/08 02:05:02;;;;;;;18.90;10.55;;;2.20;99.90;;;;;;4992782;28;20080;-71
2022/03/08 02:07:28;;;;;;;17.10;9.73;;;2.20;99.90;;;;;;4962160;28;20118;-71
2022/03/08 02:09:53;;;;;;;15.82;9.82;;;2.20;99.90;;;;;;5006120;28;20062;-71
2022/03/08 02:12:19;;;;;;;13.95;8.88;;;2.20;99.90;;;;;;4992661;28;20056;-71
2022/03/08 02:14:45;;;;;;;17.65;10.15;;;2.20;99.90;;;;;;4992549;28;20038;-71
2022/03/08 02:17:10;;;;;;;17.17;9.38;;;2.20;99.90;;;;;;4994155;28;20064;-71
2022/03/08 02:19:36;;;;;;;14.98;9.73;;;2.20;99.90;;;;;;4989557;28;20039;-71
2022/03/08 02:22:02;;;;;;;13.65;8.43;;;2.20;99.90;;;;;;4992394;28;20048;-71
2022/03/08 02:24:27;;;;;;;16.20;8.93;;;2.30;99.90;;;;;;4992577;28;20034;-71
2022/03/08 02:26:53;;;;;;;13.38;8.60;;;2.30;99.90;;;;;;4979599;28;20057;-71
2022/03/08 02:29:19;;;;;;;11.43;7.65;;;2.20;99.90;;;;;;5011809;28;20118;-72
2022/03/08 02:31:47;;;;;;;14.70;8.10;;;2.30;99.90;;;;;;5011761;28;20105;-71
2022/03/08 02:34:14;;;;;;;15.00;8.57;;;2.30;99.90;;;;;;5011908;28;20092;-71
2022/03/08 02:36:41;;;;;;;13.20;7.47;;;2.30;99.90;;;;;;5011932;28;20026;-71
2022/03/08 02:39:07;;;;;;;13.57;8.02;;;2.30;99.90;;;;;;4992413;28;20065;-71
2022/03/08 02:41:33;;;;;;;11.75;8.13;;;2.30;99.90;;;;;;4992020;28;20054;-71
2022/03/08 02:43:58;;;;;;;12.40;7.78;;;2.30;99.90;;;;;;4991470;28;20031;-71
2022/03/08 02:46:24;;;;;;;10.63;7.45;;;2.30;99.90;;;;;;5002286;28;20440;-71
2022/03/08 02:48:50;;;;;;;11.73;7.82;;;2.30;99.90;;;;;;4997060;28;20073;-71
2022/03/08 02:51:17;;;;;;;12.38;7.85;;;2.30;99.90;;;;;;4991770;28;20022;-71
2022/03/08 02:53:43;;;;;;;11.35;7.43;;;2.40;99.90;;;;;;4991901;28;20509;-71
2022/03/08 02:56:08;;;;;;;13.05;8.32;;;2.30;99.90;;;;;;4991818;28;20033;-71
2022/03/08 02:58:34;;;;;;;14.85;8.25;;;2.30;99.90;;;;;;5005469;28;20033;-72
2022/03/08 03:01:00;;;;;;;13.57;8.23;;;2.30;99.90;;;;;;5011343;28;20033;-71
2022/03/08 03:03:25;;;;;;;13.00;7.90;;;2.30;99.90;;;;;;5011570;28;20021;-71
2022/03/08 03:05:51;;;;;;;14.05;8.43;;;2.30;99.90;;;;;;5010948;28;20136;-71
2022/03/08 03:08:17;;;;;;;13.93;8.00;;;2.30;99.90;;;;;;5009857;28;20037;-71
2022/03/08 03:10:42;;;;;;;12.00;7.40;;;2.20;99.90;;;;;;5011235;28;20080;-71
2022/03/08 03:13:08;;;;;;;14.50;8.18;;;2.20;99.90;;;;;;5010866;28;20455;-72
2022/03/08 03:15:33;;;;;;;11.32;7.82;;;2.20;99.90;;;;;;5010894;28;20022;-71
2022/03/08 03:18:00;;;;;;;13.10;7.65;;;2.20;99.90;;;;;;5004229;28;20061;-71
2022/03/08 03:20:26;;;;;;;15.65;8.05;;;2.20;99.90;;;;;;4991318;28;20049;-71
2022/03/08 03:22:52;;;;;;;11.02;7.22;;;2.10;99.90;;;;;;4991595;28;20030;-71
2022/03/08 03:25:18;;;;;;;12.23;7.82;;;2.20;99.90;;;;;;4991163;28;20030;-71
2022/03/08 03:27:44;;;;;;;12.35;7.75;;;2.10;99.90;;;;;;4995259;28;20022;-72
2022/03/08 03:30:13;;;;;;;10.38;7.35;;;2.10;99.90;;;;;;5010944;28;20018;-71
2022/03/08 03:32:39;;;;;;;11.15;7.47;;;2.10;99.90;;;;;;5010627;28;20018;-71
2022/03/08 03:35:06;;;;;;;12.45;7.75;;;2.10;99.90;;;;;;5010524;28;20033;-71
2022/03/08 03:37:32;;;;;;;12.45;7.55;;;2.10;99.90;;;;;;4991837;28;20029;-71
2022/03/08 03:39:58;;;;;;;12.90;7.85;;;2.10;99.90;;;;;;5010440;28;20556;-71
2022/03/08 03:42:23;;;;;;;12.90;7.70;;;2.10;99.90;;;;;;5010418;28;20160;-71
2022/03/08 03:44:49;;;;;;;13.25;7.93;;;2.00;99.90;;;;;;5010353;28;20022;-71
2022/03/08 03:47:15;;;;;;;12.18;7.22;;;2.00;99.90;;;;;;5009852;28;20018;-71
2022/03/08 03:49:40;;;;;;;13.02;8.13;;;2.00;99.90;;;;;;5009591;28;20033;-72
2022/03/08 03:52:06;;;;;;;10.80;7.57;;;2.00;99.90;;;;;;4988705;28;20170;-71
2022/03/08 03:54:32;;;;;;;13.57;7.72;;;2.00;99.90;;;;;;4990420;28;20128;-71
2022/03/08 03:56:57;;;;;;;13.32;7.65;;;2.00;99.90;;;;;;4990508;28;20448;-72
2022/03/08 03:59:23;;;;;;;10.73;7.75;;;2.00;99.90;;;;;;4990675;28;20117;-71
2022/03/08 04:01:49;;;;;;;13.85;7.90;;;2.00;99.90;;;;;;4972997;28;20499;-71
2022/03/08 04:04:14;;;;;;;15.52;8.20;;;2.00;99.90;;;;;;4990852;28;20145;-70
2022/03/08 04:06:40;;;;;;;16.42;7.82;;;1.90;99.90;;;;;;4990359;28;20030;-71
2022/03/08 04:09:06;;;;;;;11.27;7.30;;;1.90;99.90;;;;;;4991639;28;20038;-71
2022/03/08 04:11:31;;;;;;;14.05;7.85;;;2.00;99.90;;;;;;4990029;28;20065;-72
2022/03/08 04:13:58;;;;;;;13.40;7.78;;;1.90;99.90;;;;;;4990587;28;20026;-71
2022/03/08 04:16:23;;;;;;;13.25;7.85;;;1.90;99.90;;;;;;4990466;28;20029;-71
2022/03/08 04:18:49;;;;;;;14.07;7.63;;;1.90;99.90;;;;;;5006998;28;20057;-71
2022/03/08 04:21:15;;;;;;;14.00;8.27;;;1.90;99.90;;;;;;5009904;28;20102;-71
2022/03/08 04:23:40;;;;;;;14.18;7.65;;;1.90;99.90;;;;;;5009894;28;20026;-72
2022/03/08 04:26:06;;;;;;;10.88;7.47;;;1.90;99.90;;;;;;4992116;28;20026;-71
2022/03/08 04:28:31;;;;;;;12.02;7.35;;;1.90;99.90;;;;;;4996069;28;20046;-71
2022/03/08 04:30:57;;;;;;;15.25;8.02;;;1.90;99.90;;;;;;4993510;28;20423;-71
2022/03/08 04:33:22;;;;;;;12.27;7.97;;;1.90;99.90;;;;;;5009991;28;20097;-71
2022/03/08 04:35:48;;;;;;;12.57;8.38;;;1.90;99.90;;;;;;5009848;28;20021;-71
2022/03/08 04:38:13;;;;;;;15.10;8.00;;;1.90;99.90;;;;;;4996503;28;20030;-71
2022/03/08 04:40:39;;;;;;;12.65;7.72;;;1.90;99.90;;;;;;4989991;28;20283;-71
2022/03/08 04:43:05;;;;;;;12.38;7.88;;;1.90;99.90;;;;;;4990222;28;20104;-71
2022/03/08 04:45:30;;;;;;;14.40;8.82;;;1.90;99.90;;;;;;4989889;28;20037;-71
2022/03/08 04:47:56;;;;;;;14.77;8.75;;;1.80;99.90;;;;;;4998170;28;20091;-71
2022/03/08 04:50:21;;;;;;;14.52;7.70;;;1.80;99.90;;;;;;5009587;28;20026;-71
2022/03/08 04:52:49;;;;;;;14.45;8.38;;;1.80;99.90;;;;;;4991982;28;20045;-71
2022/03/08 04:55:17;;;;;;;16.35;8.75;;;1.80;99.90;;;;;;5008341;28;20087;-71
2022/03/08 04:57:43;;;;;;;13.73;8.93;;;1.70;99.90;;;;;;4980697;28;20049;-72
2022/03/08 05:00:13;;;;;;;14.68;8.52;;;1.70;99.90;;;;;;4989946;28;20022;-71
2022/03/08 05:02:41;;;;;;;14.05;8.55;;;1.70;99.90;;;;;;4989877;28;20060;-71
2022/03/08 05:05:08;;;;;;;15.95;8.82;;;1.70;99.90;;;;;;4989782;28;20121;-71
2022/03/08 05:07:38;;;;;;;13.57;8.02;;;1.80;99.90;;;;;;4996320;28;20550;-71
2022/03/08 05:10:09;;;;;;;14.20;7.60;;;1.70;99.90;;;;;;5013480;28;20033;-71
2022/03/08 05:12:35;;;;;;;15.43;8.98;;;1.70;99.90;;;;;;5013373;28;20113;-72
2022/03/08 05:15:02;;;;;;;14.10;8.57;;;1.70;99.90;;;;;;5013337;28;20041;-71
2022/03/08 05:17:27;;;;;;;16.65;8.68;;;1.70;99.90;;;;;;5011348;28;20053;-71
2022/03/08 05:19:53;;;;;;;15.75;9.10;;;1.70;99.90;;;;;;5013201;28;20502;-71
2022/03/08 05:22:18;;;;;;;15.90;8.88;;;1.60;99.90;;;;;;5013030;28;20038;-71
2022/03/08 05:24:44;;;;;;;15.13;9.07;;;1.60;99.90;;;;;;4999813;28;20673;-71
2022/03/08 05:27:10;;;;;;;17.15;9.13;;;1.60;99.90;;;;;;4978375;28;20025;-71
2022/03/08 05:29:36;;;;;;;15.68;9.13;;;1.60;99.90;;;;;;5012941;28;20053;-71
2022/03/08 05:32:02;;;;;;;13.73;9.00;;;1.60;99.90;;;;;;5005461;28;20030;-71
2022/03/08 05:34:28;;;;;;;14.40;9.13;;;1.50;99.90;;;;;;4993129;28;20050;-71
2022/03/08 05:36:53;;;;;;;14.68;9.52;;;1.50;99.90;;;;;;4998933;28;20048;-72
2022/03/08 05:39:19;;;;;;;13.52;8.85;;;1.50;99.90;;;;;;4995418;28;20034;-71
2022/03/08 05:41:44;;;;;;;14.55;9.13;;;1.40;99.90;;;;;;5002708;28;20113;-72
2022/03/08 05:44:10;;;;;;;13.77;9.00;;;1.40;99.90;;;;;;4975431;28;20401;-71
2022/03/08 05:46:36;;;;;;;15.27;9.23;;;1.40;99.90;;;;;;5009364;28;20355;-71
2022/03/08 05:49:02;;;;;;;15.05;9.05;;;1.40;99.90;;;;;;5012747;28;20060;-71
2022/03/08 05:51:28;;;;;;;14.57;8.98;;;1.40;99.90;;;;;;5027474;28;20029;-72
2022/03/08 05:53:54;;;;;;;13.27;8.85;;;1.40;99.90;;;;;;5012345;28;20030;-72
2022/03/08 05:56:19;;;;;;;15.32;9.32;;;1.30;99.90;;;;;;5000811;28;20020;-72
2022/03/08 05:58:45;;;;;;;15.18;8.55;;;1.30;99.90;;;;;;5012290;28;20030;-71
2022/03/08 06:01:11;;;;;;;13.38;8.20;;;1.30;99.90;;;;;;5000887;28;20034;-72
2022/03/08 06:03:37;;;;;;;17.27;8.82;;;1.30;99.90;;;;;;4996560;28;20030;-72
2022/03/08 06:06:03;;;;;;;15.48;8.90;;;1.30;99.90;;;;;;5001124;28;20024;-72
2022/03/08 06:08:29;;;;;;;14.98;8.50;;;1.30;99.90;;;;;;5006317;28;20204;-71
2022/03/08 06:10:54;;;;;;;18.02;9.02;;;1.30;99.90;;;;;;5004824;28;20030;-72
2022/03/08 06:13:20;;;;;;;14.95;8.90;;;1.30;99.90;;;;;;5003080;28;20247;-71
2022/03/08 06:15:45;;;;;;;15.40;9.18;;;1.30;99.90;;;;;;5001271;28;20026;-72
2022/03/08 06:18:12;;;;;;;13.23;8.48;;;1.30;99.90;;;;;;5004376;28;20418;-72
2022/03/08 06:20:37;;;;;;;21.60;9.57;;;1.30;99.90;;;;;;5009299;28;20034;-71
2022/03/08 06:23:03;;;;;;;15.05;8.85;;;1.30;99.90;;;;;;5006623;28;20022;-72
2022/03/08 06:25:28;;;;;;;18.17;8.63;;;1.40;99.90;;;;;;4983175;28;20034;-71
2022/03/08 06:27:54;;;;;;;15.07;9.27;;;1.30;99.90;;;;;;5000744;28;20801;-72
2022/03/08 06:30:19;;;;;;;15.75;9.18;;;1.40;99.90;;;;;;4999410;28;20105;-71
2022/03/08 06:32:45;;;;;;;14.63;9.15;;;1.40;99.90;;;;;;5004535;28;20037;-72
2022/03/08 06:35:11;;;;;;;15.20;8.77;;;1.40;99.90;;;;;;5002523;28;20104;-72
2022/03/08 06:37:37;;;;;;;17.15;8.45;;;1.40;99.90;;;;;;4989091;28;20050;-72
2022/03/08 06:40:03;;;;;;;16.52;8.95;;;1.40;99.90;;;;;;5010328;28;20153;-72
2022/03/08 06:42:29;;;;;;;16.27;9.38;;;1.40;99.90;;;;;;5002418;28;20133;-71
2022/03/08 06:44:55;;;;;;;13.85;8.88;;;1.40;99.90;;;;;;5000637;28;21637;-72
2022/03/08 06:47:20;;;;;;;16.48;8.93;;;1.40;99.90;;;;;;4988396;28;20054;-72
2022/03/08 06:49:46;;;;;;;15.38;9.25;;;1.40;99.90;;;;;;4998392;28;20029;-72
2022/03/08 06:52:12;;;;;;;13.73;8.60;;;1.40;99.90;;;;;;5008954;28;20124;-72
2022/03/08 06:54:39;;;;;;;18.25;8.93;;;1.50;99.90;;;;;;5003884;28;20034;-72
2022/03/08 06:57:05;;;;;;;13.82;8.52;;;1.50;99.90;;;;;;5001282;28;20030;-73
2022/03/08 06:59:30;;;;;;;15.68;9.05;;;1.50;99.90;;;;;;4982710;28;20084;-72
2022/03/08 07:01:56;;;;;;;18.23;8.85;;;1.50;99.90;;;;;;5005872;28;20101;-72
2022/03/08 07:04:22;;;;;;;16.00;9.27;;;1.60;99.90;;;;;;5001358;28;20037;-72
2022/03/08 07:06:48;;;;;;;15.55;9.20;;;1.60;99.90;;;;;;5006878;28;20503;-73
2022/03/08 07:09:14;;;;;;;15.85;9.05;;;1.60;99.90;;;;;;5000028;28;20026;-71
2022/03/08 07:11:40;;;;;;;12.45;8.45;;;1.60;99.90;;;;;;4996005;28;20045;-72
2022/03/08 07:14:06;;;;;;;14.00;8.68;;;1.70;99.90;;;;;;5004806;28;20045;-72
2022/03/08 07:16:32;;;;;;;15.07;9.27;;;1.70;99.90;;;;;;5010519;28;20037;-72
2022/03/08 07:18:58;;;;;;;14.52;9.10;;;1.70;99.90;;;;;;5011254;28;20038;-73
2022/03/08 07:21:24;;;;;;;13.77;8.93;;;1.70;99.90;;;;;;4993494;28;20023;-73
2022/03/08 07:23:49;;;;;;;13.90;8.68;;;1.70;99.90;;;;;;4995960;28;20390;-73
2022/03/08 07:26:15;;;;;;;13.15;8.73;;;1.80;99.90;;;;;;4999822;28;20289;-73
2022/03/08 07:28:41;;;;;;;14.57;9.25;;;1.80;99.90;;;;;;5002220;28;20026;-72
2022/03/08 07:31:07;;;;;;;15.15;9.20;;;1.80;99.90;;;;;;4993246;28;20014;-73
2022/03/08 07:33:32;;;;;;;15.32;9.27;;;1.90;99.90;;;;;;4991542;28;20037;-73
2022/03/08 07:35:59;;;;;;;14.60;8.82;;;1.90;99.90;;;;;;5009424;28;20068;-73
2022/03/08 07:38:25;;;;;;;15.88;9.30;;;1.90;99.90;;;;;;5009974;28;20030;-72
2022/03/08 07:40:51;;;;;;;14.43;8.95;;;2.00;99.90;;;;;;5010383;28;20037;-73
2022/03/08 07:43:17;;;;;;;15.85;8.73;;;2.00;99.90;;;;;;5009612;28;20386;-73
2022/03/08 07:45:42;;;;;;;15.40;8.98;;;2.00;99.90;;;;;;5004884;28;20052;-73
2022/03/08 07:48:08;;;;;;;15.27;9.07;;;2.10;99.90;;;;;;5008037;28;20030;-73
2022/03/08 07:50:35;;;;;;;14.38;9.25;;;2.10;99.90;;;;;;4990976;28;20116;-73
2022/03/08 07:53:01;;;;;;;14.48;9.63;;;2.10;99.90;;;;;;4995791;28;20076;-72
2022/03/08 07:55:29;;;;;;;16.77;9.32;;;2.20;99.90;;;;;;4992486;28;20057;-72
2022/03/08 07:57:55;;;;;;;14.80;9.07;;;2.20;99.90;;;;;;5004273;28;20021;-72
2022/03/08 08:00:21;;;;;;;15.93;9.23;;;2.30;99.90;;;;;;4990506;28;20386;-72
2022/03/08 08:02:47;;;;;;;13.18;8.88;;;2.30;99.90;;;;;;4990595;28;20030;-73
2022/03/08 08:05:13;;;;;;;14.38;9.27;;;2.30;99.90;;;;;;4990311;28;20030;-72
2022/03/08 08:07:39;;;;;;;18.33;8.80;;;2.40;99.90;;;;;;4998539;28;20026;-73
2022/03/08 08:10:05;;;;;;;12.65;8.60;;;2.40;99.90;;;;;;5009131;28;20033;-72
2022/03/08 08:12:30;;;;;;;13.35;9.45;;;2.50;99.90;;;;;;5003057;28;20390;-73
2022/03/08 08:14:56;;;;;;;14.15;8.85;;;2.60;99.90;;;;;;4991581;28;20216;-72
2022/03/08 08:17:21;;;;;;;13.23;8.88;;;2.60;99.90;;;;;;4991574;28;20427;-72
2022/03/08 08:19:47;;;;;;;13.35;8.27;;;2.70;99.90;;;;;;5008089;28;20095;-72
2022/03/08 08:22:13;;;;;;;13.55;9.02;;;2.80;99.90;;;;;;5009756;28;20057;-73
2022/03/08 08:24:38;;;;;;;16.35;8.55;;;2.80;99.90;;;;;;5007848;28;20073;-72
2022/03/08 08:27:04;;;;;;;15.73;9.45;;;3.00;99.90;;;;;;4990492;28;20386;-72
2022/03/08 08:29:30;;;;;;;14.02;9.13;;;3.10;99.90;;;;;;4990157;28;20406;-72
2022/03/08 08:31:55;;;;;;;14.07;8.70;;;3.10;99.90;;;;;;4990146;28;20034;-73
2022/03/08 08:34:21;;;;;;;14.02;8.75;;;3.30;99.90;;;;;;4996623;28;20101;-72
2022/03/08 08:36:47;;;;;;;11.60;8.55;;;3.40;99.90;;;;;;5000621;28;20082;-72
2022/03/08 08:39:16;;;;;;;12.95;8.30;;;3.50;99.90;;;;;;5009014;28;20335;-72
2022/03/08 08:41:43;;;;;;;12.75;8.00;;;3.60;99.90;;;;;;5006457;28;20127;-73
2022/03/08 08:44:09;;;;;;;14.85;9.27;;;3.70;99.90;;;;;;5008329;28;20018;-72
2022/03/08 08:46:35;;;;;;;11.20;8.00;;;3.90;99.90;;;;;;5009625;28;20032;-73
2022/03/08 08:49:01;;;;;;;13.13;8.55;;;4.00;99.90;;;;;;5002640;28;20417;-72
2022/03/08 08:51:26;;;;;;;16.10;8.82;;;4.10;99.90;;;;;;4990119;28;20098;-73
2022/03/08 08:53:52;;;;;;;16.27;9.27;;;4.30;99.90;;;;;;4989951;28;20105;-73
2022/03/08 08:56:18;;;;;;;11.85;8.23;;;4.40;99.90;;;;;;4989842;28;20035;-72
2022/03/08 08:58:44;;;;;;;16.13;8.07;;;4.50;99.90;;;;;;4990334;28;20272;-72
2022/03/08 09:01:09;;;;;;;11.35;8.30;;;4.60;99.90;;;;;;4993834;28;20026;-73
2022/03/08 09:03:35;;;;;;;12.60;8.43;;;4.70;99.90;;;;;;4981608;28;20034;-73
2022/03/08 09:06:00;;;;;;;12.32;8.63;;;4.90;99.90;;;;;;4989495;28;20027;-73
2022/03/08 09:08:26;;;;;;;14.52;8.00;;;5.00;99.90;;;;;;4992759;28;20030;-73
2022/03/08 09:10:53;;;;;;;13.68;8.18;;;5.10;99.90;;;;;;5008660;28;20022;-72
2022/03/08 09:13:19;;;;;;;12.32;7.78;;;5.20;99.90;;;;;;5008200;28;20444;-73
2022/03/08 09:15:45;;;;;;;13.48;8.23;;;5.30;99.90;;;;;;5008327;28;20070;-73
2022/03/08 09:18:10;;;;;;;13.57;8.25;;;5.50;99.90;;;;;;5005283;28;20401;-73
2022/03/08 09:20:36;;;;;;;10.48;7.88;;;5.60;99.20;;;;;;4991064;28;20144;-73
2022/03/08 09:23:01;;;;;;;10.20;7.45;;;5.60;99.10;;;;;;4988789;28;20033;-73
2022/03/08 09:25:27;;;;;;;13.45;8.32;;;5.80;98.50;;;;;;4989777;28;20056;-73
2022/03/08 09:27:53;;;;;;;9.57;7.20;;;5.90;96.50;;;;;;4989595;28;20169;-73
2022/03/08 09:30:19;;;;;;;9.43;6.85;;;6.00;96.30;;;;;;5001875;28;20501;-73
2022/03/08 09:32:45;;;;;;;12.75;7.57;;;6.10;95.20;;;;;;4998688;28;20347;-73
2022/03/08 09:35:10;;;;;;;9.77;7.05;;;6.10;94.00;;;;;;5009217;28;20030;-73
2022/03/08 09:37:36;;;;;;;11.48;7.75;;;6.20;93.10;;;;;;5005708;28;20034;-73
2022/03/08 09:40:03;;;;;;;11.57;7.80;;;6.30;92.30;;;;;;4989402;28;20043;-72
2022/03/08 09:42:30;;;;;;;13.32;7.95;;;6.30;92.10;;;;;;5000323;28;20065;-73
2022/03/08 09:44:57;;;;;;;10.82;7.95;;;6.40;92.00;;;;;;4989230;28;20065;-73
2022/03/08 09:47:22;;;;;;;11.10;7.20;;;6.50;91.90;;;;;;4996126;28;20045;-73
2022/03/08 09:49:48;;;;;;;9.95;7.18;;;6.70;92.10;;;;;;5008961;28;20090;-73
2022/03/08 09:52:15;;;;;;;11.25;7.57;;;6.80;91.40;;;;;;5009122;28;20018;-73
2022/03/08 09:54:43;;;;;;;11.18;7.53;;;7.00;90.90;;;;;;5002917;28;20026;-73
2022/03/08 09:57:18;;;;;;;12.75;7.55;;;7.10;89.80;;;;;;5002908;28;20511;-73
2022/03/08 09:59:44;;;;;;;15.40;7.97;;;7.20;87.70;;;;;;4993168;28;20069;-73
2022/03/08 10:02:14;;;;;;;10.25;7.63;;;7.20;86.60;;;;;;5008560;28;20111;-73
2022/03/08 10:04:40;;;;;;;11.93;7.60;;;7.30;85.70;;;;;;5012028;28;20032;-73
2022/03/08 10:07:11;;;;;;;9.00;7.45;;;7.40;85.30;;;;;;5011881;28;20026;-73
2022/03/08 10:09:36;;;;;;;10.82;7.70;;;7.40;84.00;;;;;;5011451;28;20347;-73
2022/03/08 10:12:14;;;;;;;10.63;7.15;;;7.50;83.00;;;;;;5011033;28;20032;-73
2022/03/08 10:14:40;;;;;;;10.10;7.70;;;7.60;83.70;;;;;;4975893;28;20045;-73
2022/03/08 10:17:30;;;;;;;12.55;7.70;;;7.70;83.40;;;;;;5001717;28;20042;-73
2022/03/08 10:19:56;;;;;;;13.23;8.38;;;7.90;82.40;;;;;;5005621;28;20048;-73
2022/03/08 10:22:30;;;;;;;11.77;7.03;;;8.00;80.30;;;;;;4981956;28;20021;-73
2022/03/08 10:25:30;;;;;;;11.03;7.43;;;8.10;79.70;;;;;;5007938;28;20036;-73
2022/03/08 10:27:55;;;;;;;9.30;7.13;;;8.20;77.20;;;;;;4958530;28;20046;-74
2022/03/08 10:30:27;;;;;;;10.75;7.18;;;8.20;77.10;;;;;;4993111;28;20048;-73
2022/03/08 10:32:56;;;;;;;9.10;6.82;;;8.30;76.20;;;;;;5009794;28;20064;-73
2022/03/08 10:35:26;;;;;;;12.40;6.97;;;8.30;74.40;;;;;;5011944;28;20037;-73
2022/03/08 10:37:52;;;;;;;12.07;7.00;;;8.30;75.00;;;;;;4997439;28;20034;-73
2022/03/08 10:40:23;;;;;;;13.00;7.07;;;8.40;73.40;;;;;;5005359;28;20028;-73
2022/03/08 10:43:06;;;;;;;11.25;7.03;;;8.40;71.20;;;;;;5004290;28;20058;-73
2022/03/08 10:45:34;;;;;;;11.25;7.40;;;8.40;70.20;;;;;;5007020;28;20687;-74
2022/03/08 10:48:00;;;;;;;13.32;6.82;;;8.40;70.00;;;;;;5010303;28;20508;-73
2022/03/08 10:50:29;;;;;;;10.13;6.80;;;8.50;68.60;;;;;;5011997;28;20108;-73
2022/03/08 10:52:57;;;;;;;9.63;6.55;;;8.50;68.00;;;;;;4997121;28;20011;-73
2022/03/08 10:55:25;;;;;;;8.60;6.38;;;8.60;67.00;;;;;;4992558;28;20026;-73
2022/03/08 10:57:56;;;;;;;9.45;6.63;;;8.70;66.10;;;;;;4990301;28;20064;-73
2022/03/08 11:00:31;;;;;;;9.10;6.82;;;8.80;65.20;;;;;;4990143;28;20030;-73
2022/03/08 11:03:01;;;;;;;11.57;7.05;;;8.90;65.80;;;;;;4991424;28;20053;-73
2022/03/08 11:05:32;;;;;;;9.80;6.78;;;9.00;65.80;;;;;;4999650;28;20088;-73
2022/03/08 11:07:57;;;;;;;9.75;6.60;;;9.00;65.20;;;;;;4999002;28;20121;-73
2022/03/08 11:10:25;;;;;;;9.43;6.38;;;9.10;63.90;;;;;;4991254;28;20106;-73
2022/03/08 11:12:52;;;;;;;8.35;6.32;;;9.10;62.70;;;;;;4997702;28;20025;-73
2022/03/08 11:15:19;;;;;;;12.65;6.82;;;9.20;61.40;;;;;;4991513;28;20487;-73
2022/03/08 11:17:47;;;;;;;9.13;6.25;;;9.20;61.00;;;;;;4957783;28;20133;-73
2022/03/08 11:20:16;;;;;;;9.88;6.40;;;9.20;61.70;;;;;;5006354;28;20548;-73
2022/03/08 11:22:43;;;;;;;10.85;6.78;;;9.40;62.50;;;;;;4993381;28;20099;-74
2022/03/08 11:25:11;;;;;;;13.70;6.70;;;9.50;61.80;;;;;;4991147;28;20030;-73
2022/03/08 11:27:39;;;;;;;9.13;6.60;;;9.50;60.60;;;;;;4990937;28;20094;-73
2022/03/08 11:30:05;;;;;;;9.20;7.10;;;9.50;60.40;;;;;;5007247;28;20041;-73
2022/03/08 11:32:38;;;;;;;11.13;6.95;;;9.50;59.90;;;;;;5010312;28;20418;-73
2022/03/08 11:35:16;;;;;;;9.70;6.63;;;9.60;60.60;;;;;;5010563;28;20493;-73
2022/03/08 11:37:46;;;;;;;9.05;6.32;;;9.70;59.80;;;;;;4998945;28;20041;-73
2022/03/08 11:40:17;;;;;;;9.10;6.78;;;9.80;59.10;;;;;;4990807;28;20073;-73
2022/03/08 11:42:45;;;;;;;12.10;6.22;;;9.80;58.20;;;;;;4991637;28;20662;-73
2022/03/08 11:45:21;;;;;;;9.98;6.53;;;9.90;58.70;;;;;;4973328;28;20059;-73
2022/03/08 11:47:51;;;;;;;;;;;10.00;58.70;;;;;;4990927;28;20513;-73
2022/03/08 11:50:31;;;;;;;9.35;6.30;;;10.10;58.00;;;;;;4996800;28;19910;-73
2022/03/08 11:53:06;;;;;;;9.55;6.60;;;10.10;56.60;;;;;;4990641;28;20038;-73
2022/03/08 11:55:35;;;;;;;11.50;7.00;;;10.10;56.20;;;;;;4973052;28;20141;-73
2022/03/08 11:58:06;;;;;;;10.88;6.82;;;10.10;56.30;;;;;;4994484;28;20068;-73
2022/03/08 12:00:34;;;;;;;7.93;6.40;;;10.10;56.20;;;;;;5000346;28;20041;-73
2022/03/08 12:03:04;;;;;;;10.82;7.20;;;10.20;56.20;;;;;;5010233;28;20061;-73
2022/03/08 12:05:38;;;;;;;9.32;6.22;;;10.20;56.00;;;;;;5008256;28;20037;-73
2022/03/08 12:08:28;;;;;;;9.17;6.63;;;10.30;55.80;;;;;;5010221;28;20468;-73
2022/03/08 12:11:01;;;;;;;10.35;6.70;;;10.40;56.10;;;;;;5009450;28;20038;-73
2022/03/08 12:13:33;;;;;;;10.20;6.20;;;10.40;56.20;;;;;;5007489;28;20050;-73
2022/03/08 12:16:08;;;;;;;9.75;6.43;;;10.60;56.00;;;;;;4990885;28;20037;-73
2022/03/08 12:18:40;;;;;;;10.00;6.55;;;10.70;55.40;;;;;;5010662;28;20062;-73
2022/03/08 12:21:14;;;;;;;10.18;7.00;;;10.80;55.10;;;;;;4982313;28;20113;-73
2022/03/08 12:24:01;;;;;;;9.63;6.32;;;10.90;55.10;;;;;;5003040;28;20375;-73
2022/03/08 12:26:52;;;;;;;10.63;6.43;;;10.80;54.30;;;;;;4997673;28;20109;-73
2022/03/08 12:29:22;;;;;;;8.93;6.55;;;10.80;53.60;;;;;;5004368;28;20080;-73
2022/03/08 12:31:57;;;;;;;11.57;6.57;;;10.90;53.50;;;;;;5006173;28;20026;-73
2022/03/08 12:34:45;;;;;;;8.35;6.18;;;10.90;53.40;;;;;;5008668;28;20018;-73
2022/03/08 12:37:17;;;;;;;7.63;6.05;;;11.00;52.30;;;;;;5004949;28;20044;-73
2022/03/08 12:39:47;;;;;;;10.48;6.00;;;11.00;53.00;;;;;;5005319;28;20038;-74
2022/03/08 12:42:24;;;;;;;9.52;6.65;;;11.10;53.50;;;;;;5006231;28;20631;-73
2022/03/08 12:44:57;;;;;;;9.05;6.53;;;11.20;53.60;;;;;;5000190;28;20038;-73